Aérodrome :
LOGIN :

S'inscrire | Disclaimer

   EN    FR    IT 

 










Légende :    VFR   VFR Marginal   IFR   IFR Intensif   IFR Très Intensif
Visi : 
Plafond : 
>= 8 km
>= 3000ft
5 à 8 km
1000 à 3000 ft
1500m à 5 km
500 à 1000 ft
800 à 1500m
200 à 500 ft
< 800m
< 200 ft
Symboles :   Orages  Brouillard  Fortes neiges  Fortes précipitations  Vent > 20 kt
SIGMETs :   Divers  Orages  Givrage  Turbulence  Onde Orograph.  Cendres Volcan.






- Altitude de l'aérodrome : 650 ft
- Code IATA : ZJI


LSZL - Locarno

DERNIER METAR :
  • 012250Z AUTO 07005KT 9999NDV NCD 20/14 Q1018 RMK

METARs EXPIRÉS :
  • 011620Z AUTO 11008KT 080V140 9999NDV NCD 26/15 Q1014 RMK
  • 012150Z AUTO 10008KT 060V120 9999NDV NCD 22/14 Q1017 RMK
  • 012120Z AUTO 06005KT 020V140 9999NDV NCD 21/14 Q1017 RMK
  • 012050Z AUTO 09006KT 050V110 9999NDV NCD 21/14 Q1017 RMK
  • 012020Z AUTO 07005KT 030V100 9999NDV NCD 21/14 Q1016 RMK

TAF TAF LSZL
Valide du 01 à 18h jusqu'au 02 à 03h UTC


011725Z 0118/0203 11008KT 9999 SCT050
BECMG 0118/0122 CAVOK



MET'MAP, la Météo Aéronautique d'un coup d'oeil ! - Copyright ORBIFLY Décembre 2007 - Disclaimer

ORBIFLY MET'MAP TEAM :

Programmation & Développement : Alexandra Zaïnal
Sur une idée originale de : Baudouin d'Aumeries
Soutien technique & logistique : Manuel Goepfert
Assistance : Marc-Olivier Méhu




SOURCES & CREDITS :

   NOAA